Time;durP1;ratioP1;P1;durP2;ratioP2;P2;SDS_P1;SDS_P2;PMS_P1;PMS_P2;Temp;Humidity;BMP_temperature;BMP_pressure;BME280_temperature;BME280_humidity;BME280_pressure;Samples;Min_cycle;Max_cycle;Signal;HPM_P1;HPM_P2
2023/04/10 00:00:30;;;;;;;15.10;13.07;;;;;;;8.14;nan;101903.63;4996113;28;20509;-44
2023/04/10 00:02:57;;;;;;;15.48;13.70;;;;;;;8.46;nan;101959.44;4996147;28;20034;-43
2023/04/10 00:05:22;;;;;;;14.80;12.73;;;;;;;8.44;nan;101954.19;4995891;28;20043;-43
2023/04/10 00:07:47;;;;;;;14.90;13.32;;;;;;;8.45;nan;101949.81;4996030;28;20035;-43
2023/04/10 00:10:13;;;;;;;16.17;14.02;;;;;;;8.37;nan;101925.38;4995747;28;20114;-44
2023/04/10 00:12:38;;;;;;;16.08;13.23;;;;;;;8.46;nan;101936.66;5011288;28;20038;-45
2023/04/10 00:15:04;;;;;;;14.23;12.82;;;;;;;8.43;nan;101941.09;4994744;28;20041;-43
2023/04/10 00:17:29;;;;;;;13.40;12.00;;;;;;;8.11;nan;101875.66;4995512;28;20035;-47
2023/04/10 00:19:54;;;;;;;15.60;12.90;;;;;;;8.42;nan;101932.34;4995985;28;20469;-42
2023/04/10 00:22:20;;;;;;;17.45;13.05;;;;;;;8.40;nan;101936.72;4978336;28;20034;-42
2023/04/10 00:24:45;;;;;;;14.32;12.45;;;;;;;7.99;nan;101864.38;4995751;28;20037;-42
2023/04/10 00:27:10;;;;;;;14.43;12.93;;;;;;;8.36;nan;101926.25;4995492;28;20046;-43
2023/04/10 00:29:36;;;;;;;15.38;13.13;;;;;;;7.94;nan;101862.63;4995049;28;20472;-42
2023/04/10 00:32:01;;;;;;;15.15;13.05;;;;;;;8.24;nan;101921.91;4995673;28;20042;-42
2023/04/10 00:34:26;;;;;;;14.20;12.70;;;;;;;8.23;nan;101907.03;4995038;28;20218;-42
2023/04/10 00:36:52;;;;;;;16.95;13.50;;;;;;;8.15;nan;101900.97;4994743;28;20042;-41
2023/04/10 00:39:18;;;;;;;16.85;14.20;;;;;;;8.26;nan;101929.78;4994057;28;20030;-41
2023/04/10 00:41:43;;;;;;;15.88;14.18;;;;;;;8.22;nan;101909.69;4994899;28;20046;-41
2023/04/10 00:44:08;;;;;;;16.33;13.65;;;;;;;7.73;nan;101836.56;4994426;28;20445;-43
2023/04/10 00:46:36;;;;;;;14.60;12.98;;;;;;;8.07;nan;101892.28;5009957;28;20034;-42
2023/04/10 00:49:02;;;;;;;14.45;12.93;;;;;;;8.15;nan;101919.34;4995576;28;20034;-41
2023/04/10 00:51:27;;;;;;;15.35;13.68;;;;;;;8.09;nan;101901.00;4994953;28;20037;-41
2023/04/10 00:53:55;;;;;;;14.85;13.23;;;;;;;8.01;nan;101894.94;4994968;28;20030;-40
2023/04/10 00:56:22;;;;;;;16.08;13.55;;;;;;;7.97;nan;101894.97;4995227;28;20474;-41
2023/04/10 00:58:48;;;;;;;16.10;14.13;;;;;;;8.01;nan;101891.44;4994358;28;20042;-44
2023/04/10 01:01:13;;;;;;;16.75;14.32;;;;;;;7.62;nan;101829.59;4993975;28;20126;-44
2023/04/10 01:03:39;;;;;;;15.38;13.02;;;;;;;7.92;nan;101877.50;4993686;28;20070;-46
2023/04/10 01:06:20;;;;;;;14.77;12.80;;;;;;;7.89;nan;101887.13;4995062;28;20026;-50
2023/04/10 01:09:10;;;;;;;15.05;13.23;;;;;;;7.63;nan;101826.09;4994244;28;20042;-42
2023/04/10 01:11:52;;;;;;;14.68;13.00;;;;;;;7.79;nan;101857.47;5010141;28;20121;-43
2023/04/10 01:14:36;;;;;;;16.35;13.73;;;;;;;7.74;nan;101855.75;4993788;28;20026;-41
2023/04/10 01:17:07;;;;;;;14.55;12.82;;;;;;;7.73;nan;101867.13;4994860;28;20057;-42
2023/04/10 01:19:50;;;;;;;14.97;12.87;;;;;;;6.93;nan;101726.88;5009674;28;20494;-42
2023/04/10 01:22:16;;;;;;;15.02;13.23;;;;;;;7.65;nan;101854.03;4994538;28;20301;-41
2023/04/10 01:25:00;;;;;;;16.50;14.00;;;;;;;7.60;nan;101847.94;5003657;28;20395;-41
2023/04/10 01:27:50;;;;;;;14.75;13.15;;;;;;;7.59;nan;101847.97;5013766;28;20042;-41
2023/04/10 01:30:17;;;;;;;14.48;12.98;;;;;;;7.53;nan;101845.38;5013961;28;20050;-41
2023/04/10 01:32:42;;;;;;;15.00;13.20;;;;;;;7.53;nan;101848.00;5013151;28;20485;-42
2023/04/10 01:35:08;;;;;;;17.20;13.75;;;;;;;7.54;nan;101847.09;5012923;28;20072;-41
2023/04/10 01:37:37;;;;;;;15.35;13.13;;;;;;;7.53;nan;101837.50;5014057;28;20071;-41
2023/04/10 01:40:07;;;;;;;14.52;13.02;;;;;;;7.55;nan;101833.13;5011566;28;20374;-40
2023/04/10 01:42:34;;;;;;;15.65;12.60;;;;;;;7.53;nan;101840.97;4993384;28;20121;-40
2023/04/10 01:45:00;;;;;;;16.13;13.57;;;;;;;7.38;nan;101807.84;4994355;28;20125;-41
2023/04/10 01:47:26;;;;;;;14.88;13.30;;;;;;;7.54;nan;101826.13;4993003;28;20113;-41
2023/04/10 01:49:52;;;;;;;15.57;13.20;;;;;;;7.50;nan;101833.13;4994124;28;20030;-41
2023/04/10 01:52:18;;;;;;;15.30;13.18;;;;;;;7.33;nan;101787.81;4992928;28;20035;-42
2023/04/10 01:54:47;;;;;;;15.57;12.95;;;;;;;7.44;nan;101819.22;4994078;28;20035;-41
2023/04/10 01:57:13;;;;;;;14.60;12.50;;;;;;;7.45;nan;101837.53;4975889;28;20041;-41
2023/04/10 01:59:39;;;;;;;14.85;12.88;;;;;;;7.36;nan;101825.34;5027173;28;20034;-41
2023/04/10 02:02:06;;;;;;;14.98;12.82;;;;;;;7.39;nan;101821.81;5013576;28;20414;-41
2023/04/10 02:04:32;;;;;;;14.52;12.93;;;;;;;7.34;nan;101814.00;5013506;28;20042;-41
2023/04/10 02:07:00;;;;;;;15.52;13.60;;;;;;;6.97;nan;101754.78;5012131;28;20041;-41
2023/04/10 02:10:03;;;;;;;14.63;13.13;;;;;;;7.34;nan;101820.97;5013098;28;20034;-41
2023/04/10 02:12:31;;;;;;;15.85;13.77;;;;;;;7.29;nan;101826.25;5013827;28;20284;-41
2023/04/10 02:15:00;;;;;;;15.13;12.85;;;;;;;7.23;nan;101813.19;5008349;28;20042;-41
2023/04/10 02:17:28;;;;;;;15.50;13.65;;;;;;;6.87;nan;101760.91;4992440;28;20030;-42
2023/04/10 02:19:54;;;;;;;15.48;13.60;;;;;;;7.09;nan;101798.38;4993724;28;20068;-41
2023/04/10 02:22:20;;;;;;;15.25;13.50;;;;;;;6.78;nan;101753.97;4993453;28;20474;-41
2023/04/10 02:24:46;;;;;;;15.55;13.95;;;;;;;7.08;nan;101817.56;4992437;28;20488;-41
2023/04/10 02:27:12;;;;;;;15.65;13.23;;;;;;;7.05;nan;101809.72;4993628;28;20034;-41
2023/04/10 02:29:37;;;;;;;14.80;13.30;;;;;;;6.98;nan;101818.44;4993390;28;20058;-41
2023/04/10 02:32:03;;;;;;;16.38;13.32;;;;;;;6.87;nan;101808.03;5004893;28;20132;-41
2023/04/10 02:34:28;;;;;;;15.98;14.27;;;;;;;6.86;nan;101811.50;5031386;28;20468;-42
2023/04/10 02:36:54;;;;;;;15.45;13.75;;;;;;;6.79;nan;101831.59;5032590;28;20087;-41
2023/04/10 02:39:19;;;;;;;15.30;13.07;;;;;;;6.71;nan;101820.25;5048188;28;20033;-40
2023/04/10 02:41:45;;;;;;;17.90;13.70;;;;;;;6.69;nan;101831.59;5031832;28;20041;-41
2023/04/10 02:44:11;;;;;;;16.83;13.88;;;;;;;6.46;nan;101797.59;5031201;28;20121;-47
2023/04/10 02:46:36;;;;;;;16.58;13.38;;;;;;;6.62;nan;101812.44;5032609;28;20465;-41
2023/04/10 02:49:01;;;;;;;15.68;13.70;;;;;;;6.63;nan;101797.56;5017640;28;20133;-40
2023/04/10 02:51:27;;;;;;;15.27;13.32;;;;;;;6.73;nan;101812.41;4992918;28;20042;-41
2023/04/10 02:53:52;;;;;;;17.23;14.30;;;;;;;6.46;nan;101758.38;4991803;28;20045;-40
2023/04/10 02:56:18;;;;;;;14.45;12.88;;;;;;;6.80;nan;101825.47;4992768;28;20038;-40
2023/04/10 02:58:45;;;;;;;16.13;13.45;;;;;;;6.57;nan;101768.81;4993056;28;20034;-41
2023/04/10 03:01:11;;;;;;;15.88;13.23;;;;;;;6.76;nan;101797.59;4992637;28;20046;-42
2023/04/10 03:03:36;;;;;;;16.63;12.63;;;;;;;6.84;nan;101815.88;4993484;28;20037;-40
2023/04/10 03:06:01;;;;;;;14.18;12.25;;;;;;;6.86;nan;101814.13;4998408;28;20037;-41
2023/04/10 03:08:29;;;;;;;15.35;12.68;;;;;;;6.92;nan;101805.41;5012335;28;20034;-41
2023/04/10 03:10:54;;;;;;;15.80;12.27;;;;;;;6.63;nan;101742.63;5011161;28;20477;-41
2023/04/10 03:13:20;;;;;;;15.43;12.40;;;;;;;6.92;nan;101787.09;5011193;28;20128;-41
2023/04/10 03:15:45;;;;;;;13.32;11.90;;;;;;;6.98;nan;101785.31;5012484;28;20473;-41
2023/04/10 03:18:11;;;;;;;13.02;11.70;;;;;;;7.06;nan;101778.31;5012648;28;20037;-41
2023/04/10 03:20:37;;;;;;;13.43;11.32;;;;;;;7.24;nan;101801.81;5012514;28;20397;-41
2023/04/10 03:23:06;;;;;;;12.80;11.50;;;;;;;6.92;nan;101732.97;5011049;28;20053;-41
2023/04/10 03:25:34;;;;;;;12.40;11.00;;;;;;;7.03;nan;101744.31;5010903;28;20038;-40
2023/04/10 03:27:59;;;;;;;11.85;10.52;;;;;;;7.00;nan;101738.19;5011904;28;20030;-43
2023/04/10 03:30:25;;;;;;;12.20;10.95;;;;;;;7.36;nan;101793.91;5011272;28;20556;-41
2023/04/10 03:32:50;;;;;;;11.70;10.15;;;;;;;6.93;nan;101698.09;5012570;28;20040;-43
2023/04/10 03:35:15;;;;;;;11.43;9.75;;;;;;;7.16;nan;101740.75;5012274;28;20030;-41
2023/04/10 03:37:41;;;;;;;12.07;10.23;;;;;;;7.21;nan;101731.13;5011237;28;20083;-42
2023/04/10 03:40:08;;;;;;;11.80;10.45;;;;;;;7.53;nan;101766.78;5006884;28;20046;-41
2023/04/10 03:42:33;;;;;;;11.80;10.10;;;;;;;7.35;nan;101726.66;4992690;28;20073;-40
2023/04/10 03:45:01;;;;;;;12.30;9.77;;;;;;;7.69;nan;101765.81;4992063;28;20499;-41
2023/04/10 03:47:26;;;;;;;10.43;9.32;;;;;;;7.65;nan;101753.59;4992679;28;20490;-41
2023/04/10 03:49:52;;;;;;;10.02;9.02;;;;;;;7.80;nan;101761.34;4991537;28;20041;-42
2023/04/10 03:52:17;;;;;;;10.77;9.13;;;;;;;7.85;nan;101759.59;4992692;28;20061;-42
2023/04/10 03:54:42;;;;;;;10.30;9.25;;;;;;;7.92;nan;101761.28;4992448;28;20034;-41
2023/04/10 03:57:08;;;;;;;11.02;9.18;;;;;;;7.61;nan;101702.09;4991273;28;20425;-40
2023/04/10 03:59:33;;;;;;;10.70;9.00;;;;;;;7.90;nan;101742.97;4991184;28;20089;-41
2023/04/10 04:01:58;;;;;;;9.77;8.75;;;;;;;7.70;nan;101700.28;4991806;28;20034;-40
2023/04/10 04:04:25;;;;;;;11.15;8.73;;;;;;;8.06;nan;101750.69;5012053;28;20382;-40
2023/04/10 04:06:50;;;;;;;9.15;8.15;;;;;;;7.80;nan;101712.44;5012153;28;20034;-40
2023/04/10 04:09:16;;;;;;;9.85;8.13;;;;;;;7.72;nan;101695.91;5011086;28;20025;-41
2023/04/10 04:11:41;;;;;;;9.80;8.63;;;;;;;8.11;nan;101756.78;5010766;28;20071;-41
2023/04/10 04:14:06;;;;;;;9.82;8.82;;;;;;;8.09;nan;101743.66;5011947;28;20033;-41
2023/04/10 04:16:32;;;;;;;9.30;8.27;;;;;;;8.16;nan;101757.63;5012007;28;20088;-41
2023/04/10 04:18:57;;;;;;;8.73;7.82;;;;;;;8.15;nan;101755.84;5012218;28;20443;-41
2023/04/10 04:21:22;;;;;;;9.27;8.32;;;;;;;7.94;nan;101721.06;5012857;28;20042;-41
2023/04/10 04:23:48;;;;;;;9.43;8.40;;;;;;;8.14;nan;101747.16;5015479;28;20034;-40
2023/04/10 04:26:13;;;;;;;9.70;8.27;;;;;;;8.12;nan;101740.16;5015395;28;20034;-41
2023/04/10 04:28:38;;;;;;;9.75;8.40;;;;;;;8.08;nan;101734.09;5015366;28;20041;-41
2023/04/10 04:31:04;;;;;;;8.35;7.55;;;;;;;8.09;nan;101733.19;5015373;28;20061;-41
2023/04/10 04:33:29;;;;;;;12.68;7.65;;;;;;;7.88;nan;101694.06;5015437;28;20041;-42
2023/04/10 04:35:55;;;;;;;8.43;7.57;;;;;;;7.86;nan;101686.19;4996609;28;20034;-41
2023/04/10 04:38:21;;;;;;;10.45;8.23;;;;;;;8.19;nan;101731.38;5014146;28;20030;-41
2023/04/10 04:40:46;;;;;;;8.95;8.13;;;;;;;7.94;nan;101676.50;5013711;28;20056;-41
2023/04/10 04:43:11;;;;;;;9.55;8.65;;;;;;;8.24;nan;101725.19;5015564;28;20087;-41
2023/04/10 04:45:37;;;;;;;9.05;8.15;;;;;;;7.98;nan;101660.75;5015305;28;20038;-41
2023/04/10 04:48:02;;;;;;;8.45;7.60;;;;;;;7.85;nan;101636.41;5015219;28;20041;-40
2023/04/10 04:50:27;;;;;;;9.23;7.85;;;;;;;8.05;nan;101663.31;5014934;28;20034;-40
2023/04/10 04:52:53;;;;;;;7.97;7.28;;;;;;;8.35;nan;101712.00;4998517;28;20030;-41
2023/04/10 04:55:18;;;;;;;8.25;7.50;;;;;;;8.39;nan;101719.84;4995379;28;20030;-41
2023/04/10 04:57:43;;;;;;;8.23;7.22;;;;;;;8.41;nan;101719.81;4995180;28;20070;-41
2023/04/10 05:00:09;;;;;;;8.38;7.57;;;;;;;8.22;nan;101690.25;4995556;28;20462;-41
2023/04/10 05:02:34;;;;;;;8.95;6.85;;;;;;;8.44;nan;101725.91;4994093;28;20043;-41
2023/04/10 05:05:00;;;;;;;7.53;6.82;;;;;;;8.46;nan;101721.50;4995325;28;20417;-42
2023/04/10 05:07:25;;;;;;;8.77;7.88;;;;;;;8.51;nan;101720.59;4995139;28;20046;-41
2023/04/10 05:09:51;;;;;;;8.93;8.02;;;;;;;8.54;nan;101728.44;4994557;28;20053;-41
2023/04/10 05:12:16;;;;;;;8.77;7.85;;;;;;;8.38;nan;101690.97;4993824;28;20041;-41
2023/04/10 05:14:41;;;;;;;8.68;7.80;;;;;;;8.49;nan;101718.84;4994948;28;20057;-41
2023/04/10 05:17:07;;;;;;;8.48;7.65;;;;;;;8.49;nan;101725.88;4995264;28;20053;-41
2023/04/10 05:19:32;;;;;;;9.35;7.15;;;;;;;8.24;nan;101674.47;4994909;28;20041;-42
2023/04/10 05:21:57;;;;;;;8.45;7.57;;;;;;;8.55;nan;101720.56;4994697;28;20046;-41
2023/04/10 05:24:22;;;;;;;8.63;7.45;;;;;;;8.53;nan;101719.69;5018649;28;20046;-40
2023/04/10 05:26:48;;;;;;;7.63;6.93;;;;;;;8.58;nan;101712.63;5013468;28;20045;-41
2023/04/10 05:29:13;;;;;;;7.75;6.95;;;;;;;8.27;nan;101682.31;5013813;28;20113;-41
2023/04/10 05:31:40;;;;;;;9.18;7.72;;;;;;;8.53;nan;101690.84;5014300;28;20120;-41
2023/04/10 05:34:05;;;;;;;8.18;7.38;;;;;;;8.71;nan;101716.88;5014363;28;20063;-41
2023/04/10 05:36:31;;;;;;;8.60;7.65;;;;;;;8.75;nan;101717.72;5012566;28;20120;-40
2023/04/10 05:38:56;;;;;;;8.25;7.45;;;;;;;8.80;nan;101718.53;5008945;28;20026;-41
2023/04/10 05:41:22;;;;;;;7.97;7.22;;;;;;;8.55;nan;101664.59;4992988;28;20046;-41
2023/04/10 05:43:47;;;;;;;8.23;7.10;;;;;;;8.82;nan;101703.63;4994112;28;20038;-41
2023/04/10 05:46:13;;;;;;;8.13;7.38;;;;;;;8.74;nan;101681.84;4994663;28;20100;-42
2023/04/10 05:48:38;;;;;;;6.85;6.15;;;;;;;9.03;nan;101706.00;4994466;28;20046;-41
2023/04/10 05:51:03;;;;;;;7.25;6.55;;;;;;;9.02;nan;101688.50;4994226;28;20058;-42
2023/04/10 05:53:30;;;;;;;6.80;6.20;;;;;;;9.11;nan;101690.19;4994132;28;20108;-41
2023/04/10 05:55:56;;;;;;;7.65;6.95;;;;;;;9.19;nan;101701.44;4993928;28;20049;-42
2023/04/10 05:58:21;;;;;;;7.50;6.80;;;;;;;8.13;nan;101521.63;4993856;28;20045;-40
2023/04/10 06:00:47;;;;;;;7.05;6.38;;;;;;;8.94;nan;101643.09;4992930;28;20034;-41
2023/04/10 06:03:12;;;;;;;7.63;6.80;;;;;;;9.29;nan;101703.91;5009185;28;20507;-41
2023/04/10 06:05:37;;;;;;;7.50;6.80;;;;;;;9.33;nan;101695.13;4992933;28;20489;-41
2023/04/10 06:08:03;;;;;;;7.90;7.13;;;;;;;8.99;nan;101646.53;4994091;28;20042;-42
2023/04/10 06:10:29;;;;;;;7.45;6.75;;;;;;;8.85;nan;101622.22;4993744;28;20054;-41
2023/04/10 06:12:55;;;;;;;8.27;7.47;;;;;;;8.89;nan;101632.69;4992981;28;20035;-41
2023/04/10 06:15:20;;;;;;;9.35;8.45;;;;;;;8.91;nan;101637.88;4994035;28;20037;-41
2023/04/10 06:17:45;;;;;;;9.00;8.15;;;;;;;9.22;nan;101685.66;4993829;28;20169;-41
2023/04/10 06:20:11;;;;;;;9.05;7.85;;;;;;;9.08;nan;101651.66;4993982;28;20374;-40
2023/04/10 06:22:36;;;;;;;9.13;7.80;;;;;;;9.09;nan;101649.91;4976320;28;20540;-41
2023/04/10 06:25:02;;;;;;;8.35;7.55;;;;;;;8.86;nan;101624.84;4993595;28;20042;-41
2023/04/10 06:27:27;;;;;;;9.18;8.23;;;;;;;9.10;nan;101646.41;4993551;28;20049;-41
2023/04/10 06:29:53;;;;;;;8.35;7.55;;;;;;;9.13;nan;101643.75;4992828;28;20061;-41
2023/04/10 06:32:18;;;;;;;8.90;7.95;;;;;;;9.14;nan;101648.97;4993432;28;20474;-41
2023/04/10 06:34:43;;;;;;;9.20;7.68;;;;;;;8.81;nan;101578.53;4993653;28;20477;-42
2023/04/10 06:37:09;;;;;;;8.38;7.57;;;;;;;9.12;nan;101619.22;4993268;28;20034;-41
2023/04/10 06:39:34;;;;;;;9.05;8.02;;;;;;;9.24;nan;101624.31;4993383;28;20070;-41
2023/04/10 06:42:01;;;;;;;10.77;8.80;;;;;;;9.27;nan;101628.66;4993202;28;20045;-40
2023/04/10 06:44:26;;;;;;;8.98;7.97;;;;;;;9.33;nan;101636.44;4993567;28;20062;-41
2023/04/10 06:46:52;;;;;;;9.18;8.27;;;;;;;9.03;nan;101559.81;5012563;28;20061;-41
2023/04/10 06:49:17;;;;;;;9.10;8.20;;;;;;;9.46;nan;101625.72;5012750;28;20042;-41
2023/04/10 06:51:44;;;;;;;8.90;8.00;;;;;;;9.52;nan;101601.09;5012949;28;20037;-41
2023/04/10 06:54:09;;;;;;;8.77;7.88;;;;;;;9.40;nan;101573.25;5012841;28;20080;-41
2023/04/10 06:56:35;;;;;;;8.88;8.07;;;;;;;9.44;nan;101567.06;4995405;28;20030;-41
2023/04/10 06:59:00;;;;;;;10.00;8.13;;;;;;;9.49;nan;101562.59;4993304;28;20034;-41
2023/04/10 07:01:25;;;;;;;7.68;6.97;;;;;;;9.82;nan;101603.22;4993255;28;20034;-41
2023/04/10 07:03:51;;;;;;;8.10;7.30;;;;;;;9.87;nan;101596.13;4993081;28;20038;-41
2023/04/10 07:06:16;;;;;;;8.77;7.95;;;;;;;10.06;nan;101617.72;4993076;28;20038;-41
2023/04/10 07:08:41;;;;;;;8.02;7.22;;;;;;;9.79;nan;101548.06;4993451;28;20478;-41
2023/04/10 07:11:07;;;;;;;8.70;7.80;;;;;;;9.94;nan;101558.31;4999473;28;20144;-42
2023/04/10 07:13:34;;;;;;;8.98;8.07;;;;;;;10.22;nan;101590.25;5012598;28;20030;-41
2023/04/10 07:15:59;;;;;;;7.93;7.13;;;;;;;10.37;nan;101603.13;5012267;28;20112;-41
2023/04/10 07:18:25;;;;;;;8.20;7.45;;;;;;;10.12;nan;101557.97;5012455;28;20145;-41
2023/04/10 07:20:51;;;;;;;9.80;7.95;;;;;;;10.12;nan;101551.84;5012354;28;20040;-42
2023/04/10 07:23:16;;;;;;;7.47;6.78;;;;;;;10.36;nan;101590.00;5012279;28;20037;-41
2023/04/10 07:25:41;;;;;;;8.25;7.32;;;;;;;10.54;nan;101592.25;5012422;28;20038;-41
2023/04/10 07:28:07;;;;;;;7.20;6.50;;;;;;;10.58;nan;101602.69;4998155;28;20034;-41
2023/04/10 07:30:32;;;;;;;7.60;6.78;;;;;;;10.31;nan;101534.81;4992704;28;20521;-41
2023/04/10 07:32:57;;;;;;;7.35;6.43;;;;;;;10.65;nan;101591.13;4992722;28;20081;-41
2023/04/10 07:35:23;;;;;;;7.55;6.85;;;;;;;10.75;nan;101586.53;4992921;28;20050;-40
2023/04/10 07:37:50;;;;;;;7.60;6.68;;;;;;;10.83;nan;101587.25;4992711;28;20031;-40
2023/04/10 07:40:16;;;;;;;6.53;5.93;;;;;;;10.94;nan;101572.09;4992784;28;20043;-41
2023/04/10 07:42:41;;;;;;;7.32;6.63;;;;;;;11.09;nan;101574.34;4992450;28;20101;-41
2023/04/10 07:45:07;;;;;;;8.10;7.00;;;;;;;11.21;nan;101567.94;4992366;28;20047;-42
2023/04/10 07:47:32;;;;;;;7.78;6.82;;;;;;;11.36;nan;101580.75;4991537;28;20042;-41
2023/04/10 07:49:58;;;;;;;7.20;6.55;;;;;;;11.38;nan;101563.16;4992875;28;20481;-41
2023/04/10 07:52:23;;;;;;;7.50;6.80;;;;;;;11.10;nan;101502.34;4992538;28;20042;-41
2023/04/10 07:54:49;;;;;;;9.32;6.97;;;;;;;11.50;nan;101562.84;4992711;28;20034;-41
2023/04/10 07:57:15;;;;;;;8.65;6.82;;;;;;;11.42;nan;101542.84;4995478;28;20030;-41
2023/04/10 07:59:40;;;;;;;8.30;7.00;;;;;;;11.19;nan;101499.47;4996519;28;20040;-42
2023/04/10 08:02:05;;;;;;;7.78;7.03;;;;;;;11.20;nan;101498.59;4995739;28;20129;-41
2023/04/10 08:04:31;;;;;;;7.38;6.68;;;;;;;11.50;nan;101548.81;4996438;28;20034;-40
2023/04/10 08:06:56;;;;;;;6.78;6.18;;;;;;;11.41;nan;101536.72;4996106;28;20058;-41
2023/04/10 08:09:21;;;;;;;8.13;6.60;;;;;;;11.08;nan;101482.19;4995986;28;20046;-41
2023/04/10 08:11:47;;;;;;;6.88;6.25;;;;;;;11.34;nan;101529.88;5011097;28;20201;-41
2023/04/10 08:14:12;;;;;;;7.60;6.90;;;;;;;11.40;nan;101524.44;4996373;28;20110;-41
2023/04/10 08:16:38;;;;;;;8.10;6.85;;;;;;;11.41;nan;101527.94;5011301;28;20077;-41
2023/04/10 08:19:03;;;;;;;8.05;6.80;;;;;;;11.42;nan;101519.13;5013125;28;20042;-42
2023/04/10 08:21:30;;;;;;;6.80;6.20;;;;;;;11.47;nan;101515.47;5007653;28;20044;-45
2023/04/10 08:23:57;;;;;;;7.35;6.65;;;;;;;11.58;nan;101534.53;5022186;28;20194;-42
2023/04/10 08:26:24;;;;;;;7.20;6.50;;;;;;;11.69;nan;101519.31;4999689;28;20105;-43
2023/04/10 08:28:51;;;;;;;8.18;6.65;;;;;;;11.73;nan;101499.84;4995994;28;20034;-42
2023/04/10 08:31:20;;;;;;;7.00;6.30;;;;;;;11.83;nan;101496.09;4995090;28;20101;-42
2023/04/10 08:33:46;;;;;;;6.93;6.22;;;;;;;11.71;nan;101455.97;4995691;28;20030;-42
2023/04/10 08:36:12;;;;;;;7.85;6.50;;;;;;;12.07;nan;101499.81;4995597;28;20027;-43
2023/04/10 08:38:38;;;;;;;7.25;6.30;;;;;;;11.95;nan;101470.25;5006990;28;20092;-42
2023/04/10 08:41:05;;;;;;;7.53;6.43;;;;;;;12.32;nan;101502.63;5006811;28;20046;-43
2023/04/10 08:43:30;;;;;;;7.15;6.50;;;;;;;12.37;nan;101485.72;5013200;28;20045;-43
2023/04/10 08:45:55;;;;;;;7.13;6.43;;;;;;;12.59;nan;101480.69;5003592;28;20038;-42
2023/04/10 08:48:24;;;;;;;7.57;6.80;;;;;;;12.52;nan;101441.31;5009783;28;20042;-42
2023/04/10 08:50:50;;;;;;;8.80;7.07;;;;;;;12.87;nan;101483.34;4994044;28;20035;-44
2023/04/10 08:53:17;;;;;;;6.95;6.35;;;;;;;12.87;nan;101468.34;4977547;28;20033;-43
2023/04/10 08:55:44;;;;;;;7.72;6.85;;;;;;;13.11;nan;101482.56;4994148;28;20089;-42
2023/04/10 08:58:10;;;;;;;7.75;6.72;;;;;;;13.15;nan;101476.28;4994133;28;20065;-42
2023/04/10 09:00:39;;;;;;;6.68;6.07;;;;;;;13.29;nan;101481.97;4995093;28;20029;-43
2023/04/10 09:03:10;;;;;;;6.82;6.13;;;;;;;13.34;nan;101473.88;4995145;28;20069;-44
2023/04/10 09:05:35;;;;;;;;;;;;;;;13.35;nan;101476.47;5010956;28;20069;-43
2023/04/10 09:08:02;;;;;;;6.80;6.20;;;;;;;13.06;nan;101415.75;5029502;28;20329;-44
2023/04/10 09:10:27;;;;;;;8.15;5.90;;;;;;;13.38;nan;101463.16;5013444;28;20045;-43
2023/04/10 09:12:53;;;;;;;8.18;7.38;;;;;;;13.44;nan;101462.09;5014762;28;20500;-42
2023/04/10 09:15:18;;;;;;;8.55;7.22;;;;;;;13.56;nan;101464.31;5014624;28;20042;-42
2023/04/10 09:18:00;;;;;;;8.23;6.28;;;;;;;13.62;nan;101468.53;5014665;28;20072;-44
2023/04/10 09:20:28;;;;;;;6.75;6.15;;;;;;;13.34;nan;101386.63;5014409;28;20056;-43
2023/04/10 09:22:54;;;;;;;7.43;6.68;;;;;;;13.45;nan;101390.66;4997770;28;20049;-43
2023/04/10 09:25:34;;;;;;;6.93;5.97;;;;;;;13.75;nan;101433.63;4993174;28;20023;-42
2023/04/10 09:28:07;;;;;;;7.78;7.05;;;;;;;13.43;nan;101379.22;4994973;28;20034;-43
2023/04/10 09:30:34;;;;;;;7.97;7.15;;;;;;;13.40;nan;101383.75;4993951;28;20050;-43
2023/04/10 09:33:00;;;;;;;8.48;7.63;;;;;;;13.28;nan;101376.28;5009750;28;20038;-45
2023/04/10 09:35:37;;;;;;;10.07;9.07;;;;;;;13.54;nan;101415.91;5009669;28;20528;-42
2023/04/10 09:38:16;;;;;;;9.40;8.45;;;;;;;13.58;nan;101408.69;4993321;28;20084;-47
2023/04/10 09:40:41;;;;;;;9.57;8.68;;;;;;;13.49;nan;101410.75;5007709;28;20038;-42
2023/04/10 09:43:24;;;;;;;9.70;8.68;;;;;;;13.54;nan;101432.59;5012756;28;20091;-44
2023/04/10 09:45:54;;;;;;;9.85;8.68;;;;;;;13.51;nan;101418.66;5014218;28;20141;-43
2023/04/10 09:48:20;;;;;;;8.93;8.02;;;;;;;13.71;nan;101418.81;5013856;28;20087;-46
2023/04/10 09:50:45;;;;;;;8.68;7.80;;;;;;;13.88;nan;101411.13;5012504;28;20113;-43
2023/04/10 09:53:13;;;;;;;9.00;8.10;;;;;;;14.00;nan;101402.72;5012378;28;20433;-48
2023/04/10 09:55:40;;;;;;;10.80;9.70;;;;;;;14.20;nan;101385.19;5012215;28;20505;-44
2023/04/10 09:58:07;;;;;;;18.67;13.95;;;;;;;14.60;nan;101395.97;5009456;28;20088;-45
2023/04/10 10:00:52;;;;;;;28.23;19.55;;;;;;;14.72;nan;101397.28;4993497;28;20042;-45
2023/04/10 10:03:19;;;;;;;27.42;20.88;;;;;;;14.69;nan;101392.97;4990471;28;20478;-43
2023/04/10 10:05:49;;;;;;;30.73;21.95;;;;;;;15.01;nan;101399.59;4993229;28;20675;-48
2023/04/10 10:08:15;;;;;;;32.15;22.77;;;;;;;15.19;nan;101337.84;4993865;28;20037;-49
2023/04/10 10:10:50;;;;;;;35.20;24.55;;;;;;;16.19;nan;101389.91;4993994;28;20034;-44
2023/04/10 10:13:23;;;;;;;32.70;24.13;;;;;;;16.74;nan;101393.47;4993019;28;20172;-45
2023/04/10 10:16:00;;;;;;;39.97;29.30;;;;;;;17.15;nan;101380.75;4993254;28;20053;-46
2023/04/10 10:18:46;;;;;;;41.38;29.85;;;;;;;17.45;nan;101391.63;4991888;28;20023;-46
2023/04/10 10:21:12;;;;;;;41.72;31.75;;;;;;;17.53;nan;101327.34;4993280;28;20033;-46
2023/04/10 10:23:39;;;;;;;42.70;31.50;;;;;;;17.54;nan;101318.44;4991971;28;20062;-46
2023/04/10 10:26:08;;;;;;;39.97;28.58;;;;;;;17.72;nan;101376.00;5008697;28;20040;-48
2023/04/10 10:28:34;;;;;;;40.75;28.90;;;;;;;17.11;nan;101323.31;4993401;28;20042;-49
2023/04/10 10:31:02;;;;;;;36.70;28.67;;;;;;;17.19;nan;101368.16;5011098;28;20460;-45
2023/04/10 10:33:28;;;;;;;35.47;27.58;;;;;;;16.79;nan;101343.56;5012511;28;20037;-45
2023/04/10 10:35:57;;;;;;;30.92;24.15;;;;;;;16.50;nan;101322.00;5011780;28;20436;-46
2023/04/10 10:38:22;;;;;;;31.98;23.15;;;;;;;16.73;nan;101327.94;5011198;28;20033;-44
2023/04/10 10:40:56;;;;;;;28.85;20.02;;;;;;;16.43;nan;101256.81;5012590;28;20045;-45
2023/04/10 10:43:36;;;;;;;24.60;18.10;;;;;;;16.64;nan;101258.41;5012682;28;20130;-44
2023/04/10 10:46:03;;;;;;;22.13;16.50;;;;;;;17.10;nan;101307.47;5007259;28;20053;-44
2023/04/10 10:48:29;;;;;;;19.63;15.30;;;;;;;17.38;nan;101305.94;5008516;28;20394;-51
2023/04/10 10:50:57;;;;;;;18.98;15.70;;;;;;;17.57;nan;101289.00;4993010;28;20026;-43
2023/04/10 10:53:42;;;;;;;18.10;14.50;;;;;;;18.22;nan;101291.53;4991751;28;20470;-43
2023/04/10 10:56:19;;;;;;;17.92;13.13;;;;;;;18.60;nan;101285.81;4993006;28;20474;-47
2023/04/10 10:58:46;;;;;;;15.60;13.90;;;;;;;18.65;nan;101286.44;4991837;28;20109;-50
2023/04/10 11:01:11;;;;;;;17.85;13.95;;;;;;;18.23;nan;101220.44;4992622;28;20045;-52
2023/04/10 11:03:37;;;;;;;15.73;13.65;;;;;;;18.42;nan;101251.25;4993006;28;20030;-45
2023/04/10 11:06:06;;;;;;;15.10;13.50;;;;;;;18.41;nan;101278.03;4992922;28;20034;-45
2023/04/10 11:08:32;;;;;;;16.42;13.30;;;;;;;18.38;nan;101264.88;4992841;28;20034;-46
2023/04/10 11:11:10;;;;;;;13.75;11.98;;;;;;;18.55;nan;101270.09;4993061;28;20411;-43
2023/04/10 11:13:40;;;;;;;13.68;11.18;;;;;;;17.96;nan;101213.09;5008040;28;20030;-44
2023/04/10 11:16:09;;;;;;;11.35;10.15;;;;;;;17.97;nan;101244.13;4992766;28;20034;-43
2023/04/10 11:18:43;;;;;;;11.10;10.00;;;;;;;17.69;nan;101251.91;4992566;28;20486;-42
2023/04/10 11:21:10;;;;;;;10.20;9.07;;;;;;;17.20;nan;101187.19;5021705;28;20040;-47
2023/04/10 11:23:37;;;;;;;9.65;8.00;;;;;;;17.45;nan;101247.91;5012688;28;20512;-43
2023/04/10 11:26:03;;;;;;;10.45;7.32;;;;;;;17.20;nan;101234.19;5012500;28;20378;-44
2023/04/10 11:28:32;;;;;;;9.70;7.28;;;;;;;17.13;nan;101224.84;5010321;28;20034;-44
2023/04/10 11:31:18;;;;;;;8.95;8.05;;;;;;;17.04;nan;101220.00;5014780;28;20421;-43
2023/04/10 11:33:48;;;;;;;14.93;9.45;;;;;;;16.85;nan;101220.09;5016248;28;20481;-44
2023/04/10 11:36:16;;;;;;;15.25;11.57;;;;;;;16.34;nan;101162.50;5015016;28;20480;-44
2023/04/10 11:38:53;;;;;;;13.10;11.25;;;;;;;16.22;nan;101158.69;5014483;28;20038;-43